sensor_id;sensor_type;location;lat;lon;timestamp;P1;durP1;ratioP1;P2;durP2;ratioP2
17524;SDS011;40431;52.198;9.902;2022-07-23T00:00:05;7.33;;;6.63;;
17524;SDS011;40431;52.198;9.902;2022-07-23T00:02:32;6.77;;;6.23;;
17524;SDS011;40431;52.198;9.902;2022-07-23T00:04:59;7.87;;;6.50;;
17524;SDS011;40431;52.198;9.902;2022-07-23T00:07:25;9.37;;;6.70;;
17524;SDS011;40431;52.198;9.902;2022-07-23T00:09:52;7.50;;;6.80;;
17524;SDS011;40431;52.198;9.902;2022-07-23T00:12:21;7.00;;;6.40;;
17524;SDS011;40431;52.198;9.902;2022-07-23T00:14:47;6.90;;;6.30;;
17524;SDS011;40431;52.198;9.902;2022-07-23T00:17:15;6.57;;;5.43;;
17524;SDS011;40431;52.198;9.902;2022-07-23T00:19:42;6.63;;;5.93;;
17524;SDS011;40431;52.198;9.902;2022-07-23T00:22:08;6.10;;;5.57;;
17524;SDS011;40431;52.198;9.902;2022-07-23T00:24:35;6.87;;;6.30;;
17524;SDS011;40431;52.198;9.902;2022-07-23T00:27:01;7.63;;;6.27;;
17524;SDS011;40431;52.198;9.902;2022-07-23T00:29:27;6.40;;;5.80;;
17524;SDS011;40431;52.198;9.902;2022-07-23T00:31:54;6.90;;;6.30;;
17524;SDS011;40431;52.198;9.902;2022-07-23T00:34:21;6.60;;;6.10;;
17524;SDS011;40431;52.198;9.902;2022-07-23T00:36:50;6.67;;;6.07;;
17524;SDS011;40431;52.198;9.902;2022-07-23T00:39:18;6.43;;;6.03;;
17524;SDS011;40431;52.198;9.902;2022-07-23T00:41:46;6.20;;;5.60;;
17524;SDS011;40431;52.198;9.902;2022-07-23T00:44:16;6.60;;;6.10;;
17524;SDS011;40431;52.198;9.902;2022-07-23T00:46:45;6.87;;;5.87;;
17524;SDS011;40431;52.198;9.902;2022-07-23T00:49:11;6.83;;;6.10;;
17524;SDS011;40431;52.198;9.902;2022-07-23T00:51:41;6.47;;;5.87;;
17524;SDS011;40431;52.198;9.902;2022-07-23T00:54:07;6.30;;;5.27;;
17524;SDS011;40431;52.198;9.902;2022-07-23T00:56:34;6.33;;;5.73;;
17524;SDS011;40431;52.198;9.902;2022-07-23T00:59:00;6.97;;;5.23;;
17524;SDS011;40431;52.198;9.902;2022-07-23T01:01:27;5.60;;;5.10;;
17524;SDS011;40431;52.198;9.902;2022-07-23T01:03:57;5.87;;;5.27;;
17524;SDS011;40431;52.198;9.902;2022-07-23T01:06:26;5.90;;;5.40;;
17524;SDS011;40431;52.198;9.902;2022-07-23T01:08:54;6.87;;;6.33;;
17524;SDS011;40431;52.198;9.902;2022-07-23T01:11:21;6.30;;;5.60;;
17524;SDS011;40431;52.198;9.902;2022-07-23T01:13:49;6.43;;;5.83;;
17524;SDS011;40431;52.198;9.902;2022-07-23T01:16:15;6.27;;;5.77;;
17524;SDS011;40431;52.198;9.902;2022-07-23T01:18:45;6.57;;;6.07;;
17524;SDS011;40431;52.198;9.902;2022-07-23T01:21:12;6.80;;;6.30;;
17524;SDS011;40431;52.198;9.902;2022-07-23T01:23:40;7.30;;;6.60;;
17524;SDS011;40431;52.198;9.902;2022-07-23T01:26:08;6.70;;;6.10;;
17524;SDS011;40431;52.198;9.902;2022-07-23T01:28:34;6.53;;;5.97;;
17524;SDS011;40431;52.198;9.902;2022-07-23T01:31:01;6.47;;;5.90;;
17524;SDS011;40431;52.198;9.902;2022-07-23T01:33:27;7.00;;;6.43;;
17524;SDS011;40431;52.198;9.902;2022-07-23T01:35:53;7.33;;;6.63;;
17524;SDS011;40431;52.198;9.902;2022-07-23T01:38:23;8.17;;;7.37;;
17524;SDS011;40431;52.198;9.902;2022-07-23T01:40:50;7.50;;;6.90;;
17524;SDS011;40431;52.198;9.902;2022-07-23T01:43:17;6.90;;;6.33;;
17524;SDS011;40431;52.198;9.902;2022-07-23T01:45:43;7.80;;;7.23;;
17524;SDS011;40431;52.198;9.902;2022-07-23T01:48:10;7.27;;;6.53;;
17524;SDS011;40431;52.198;9.902;2022-07-23T01:50:36;7.93;;;7.23;;
17524;SDS011;40431;52.198;9.902;2022-07-23T01:53:02;7.97;;;7.20;;
17524;SDS011;40431;52.198;9.902;2022-07-23T01:55:29;9.23;;;8.30;;
17524;SDS011;40431;52.198;9.902;2022-07-23T01:57:56;9.70;;;8.63;;
17524;SDS011;40431;52.198;9.902;2022-07-23T02:00:23;9.13;;;8.33;;
17524;SDS011;40431;52.198;9.902;2022-07-23T02:02:49;9.47;;;8.57;;
17524;SDS011;40431;52.198;9.902;2022-07-23T02:05:15;8.77;;;8.10;;
17524;SDS011;40431;52.198;9.902;2022-07-23T02:07:43;8.07;;;7.47;;
17524;SDS011;40431;52.198;9.902;2022-07-23T02:10:09;8.90;;;8.00;;
17524;SDS011;40431;52.198;9.902;2022-07-23T02:12:38;9.00;;;8.30;;
17524;SDS011;40431;52.198;9.902;2022-07-23T02:15:07;10.00;;;8.93;;
17524;SDS011;40431;52.198;9.902;2022-07-23T02:17:34;8.77;;;7.87;;
17524;SDS011;40431;52.198;9.902;2022-07-23T02:20:00;9.00;;;8.30;;
17524;SDS011;40431;52.198;9.902;2022-07-23T02:22:26;9.53;;;8.57;;
17524;SDS011;40431;52.198;9.902;2022-07-23T02:24:53;12.07;;;9.50;;
17524;SDS011;40431;52.198;9.902;2022-07-23T02:27:19;11.43;;;10.13;;
17524;SDS011;40431;52.198;9.902;2022-07-23T02:29:46;10.10;;;9.40;;
17524;SDS011;40431;52.198;9.902;2022-07-23T02:32:14;10.90;;;9.97;;
17524;SDS011;40431;52.198;9.902;2022-07-23T02:34:40;10.17;;;9.37;;
17524;SDS011;40431;52.198;9.902;2022-07-23T02:37:07;10.23;;;9.37;;
17524;SDS011;40431;52.198;9.902;2022-07-23T02:39:34;9.87;;;8.97;;
17524;SDS011;40431;52.198;9.902;2022-07-23T02:42:01;10.53;;;9.73;;
17524;SDS011;40431;52.198;9.902;2022-07-23T02:44:28;10.20;;;9.40;;
17524;SDS011;40431;52.198;9.902;2022-07-23T02:46:54;9.57;;;8.67;;
17524;SDS011;40431;52.198;9.902;2022-07-23T02:49:22;10.83;;;9.13;;
17524;SDS011;40431;52.198;9.902;2022-07-23T02:51:49;10.07;;;9.37;;
17524;SDS011;40431;52.198;9.902;2022-07-23T02:54:15;8.30;;;7.60;;
17524;SDS011;40431;52.198;9.902;2022-07-23T02:56:42;8.93;;;8.20;;
17524;SDS011;40431;52.198;9.902;2022-07-23T02:59:09;9.33;;;8.70;;
17524;SDS011;40431;52.198;9.902;2022-07-23T03:01:35;9.87;;;8.87;;
17524;SDS011;40431;52.198;9.902;2022-07-23T03:04:05;9.20;;;8.47;;
17524;SDS011;40431;52.198;9.902;2022-07-23T03:06:32;9.53;;;8.77;;
17524;SDS011;40431;52.198;9.902;2022-07-23T03:08:59;9.93;;;8.80;;
17524;SDS011;40431;52.198;9.902;2022-07-23T03:11:25;9.47;;;8.67;;
17524;SDS011;40431;52.198;9.902;2022-07-23T03:13:52;9.87;;;9.07;;
17524;SDS011;40431;52.198;9.902;2022-07-23T03:16:18;8.53;;;7.83;;
17524;SDS011;40431;52.198;9.902;2022-07-23T03:18:44;8.97;;;8.27;;
17524;SDS011;40431;52.198;9.902;2022-07-23T03:21:11;8.20;;;7.40;;
17524;SDS011;40431;52.198;9.902;2022-07-23T03:23:39;7.73;;;7.20;;
17524;SDS011;40431;52.198;9.902;2022-07-23T03:26:05;8.83;;;7.93;;
17524;SDS011;40431;52.198;9.902;2022-07-23T03:28:32;9.07;;;7.03;;
17524;SDS011;40431;52.198;9.902;2022-07-23T03:30:59;7.63;;;7.03;;
17524;SDS011;40431;52.198;9.902;2022-07-23T03:33:25;7.53;;;6.90;;
17524;SDS011;40431;52.198;9.902;2022-07-23T03:35:52;7.83;;;7.23;;
17524;SDS011;40431;52.198;9.902;2022-07-23T03:38:19;8.33;;;7.63;;
17524;SDS011;40431;52.198;9.902;2022-07-23T03:40:46;7.27;;;6.77;;
17524;SDS011;40431;52.198;9.902;2022-07-23T03:43:13;8.13;;;7.33;;
17524;SDS011;40431;52.198;9.902;2022-07-23T03:45:39;8.93;;;6.47;;
17524;SDS011;40431;52.198;9.902;2022-07-23T03:48:06;7.00;;;6.40;;
17524;SDS011;40431;52.198;9.902;2022-07-23T03:50:32;8.37;;;7.67;;
17524;SDS011;40431;52.198;9.902;2022-07-23T03:52:59;7.60;;;7.00;;
17524;SDS011;40431;52.198;9.902;2022-07-23T03:55:25;8.17;;;7.50;;
17524;SDS011;40431;52.198;9.902;2022-07-23T03:57:53;8.30;;;7.50;;
17524;SDS011;40431;52.198;9.902;2022-07-23T04:00:20;7.90;;;7.30;;
17524;SDS011;40431;52.198;9.902;2022-07-23T04:02:46;7.77;;;7.10;;
17524;SDS011;40431;52.198;9.902;2022-07-23T04:05:12;7.87;;;7.17;;
17524;SDS011;40431;52.198;9.902;2022-07-23T04:07:39;8.00;;;7.30;;
17524;SDS011;40431;52.198;9.902;2022-07-23T04:10:05;8.77;;;7.40;;
17524;SDS011;40431;52.198;9.902;2022-07-23T04:12:32;8.87;;;7.80;;
17524;SDS011;40431;52.198;9.902;2022-07-23T04:15:00;7.17;;;6.67;;
17524;SDS011;40431;52.198;9.902;2022-07-23T04:17:26;10.50;;;7.40;;
17524;SDS011;40431;52.198;9.902;2022-07-23T04:19:53;7.33;;;6.77;;
17524;SDS011;40431;52.198;9.902;2022-07-23T04:22:20;7.50;;;6.93;;
17524;SDS011;40431;52.198;9.902;2022-07-23T04:24:46;7.67;;;6.87;;
17524;SDS011;40431;52.198;9.902;2022-07-23T04:27:14;9.33;;;7.73;;
17524;SDS011;40431;52.198;9.902;2022-07-23T04:29:40;8.57;;;6.83;;
17524;SDS011;40431;52.198;9.902;2022-07-23T04:32:08;8.17;;;7.37;;
17524;SDS011;40431;52.198;9.902;2022-07-23T04:34:34;7.90;;;7.27;;
17524;SDS011;40431;52.198;9.902;2022-07-23T04:37:00;9.33;;;8.10;;
17524;SDS011;40431;52.198;9.902;2022-07-23T04:39:28;8.33;;;7.63;;
17524;SDS011;40431;52.198;9.902;2022-07-23T04:41:54;8.00;;;7.30;;
17524;SDS011;40431;52.198;9.902;2022-07-23T04:44:20;8.43;;;7.63;;
17524;SDS011;40431;52.198;9.902;2022-07-23T04:46:47;8.03;;;7.33;;
17524;SDS011;40431;52.198;9.902;2022-07-23T04:49:14;8.27;;;7.53;;
17524;SDS011;40431;52.198;9.902;2022-07-23T04:51:41;10.07;;;8.07;;
17524;SDS011;40431;52.198;9.902;2022-07-23T04:54:07;9.00;;;8.27;;
17524;SDS011;40431;52.198;9.902;2022-07-23T04:56:34;9.20;;;8.30;;
17524;SDS011;40431;52.198;9.902;2022-07-23T04:59:00;10.27;;;9.47;;
17524;SDS011;40431;52.198;9.902;2022-07-23T05:01:26;9.90;;;9.13;;
17524;SDS011;40431;52.198;9.902;2022-07-23T05:03:53;8.53;;;7.93;;
17524;SDS011;40431;52.198;9.902;2022-07-23T05:06:20;10.17;;;9.30;;
17524;SDS011;40431;52.198;9.902;2022-07-23T05:08:47;9.27;;;8.37;;
17524;SDS011;40431;52.198;9.902;2022-07-23T05:11:19;9.80;;;8.90;;
17524;SDS011;40431;52.198;9.902;2022-07-23T05:13:45;8.70;;;8.10;;
17524;SDS011;40431;52.198;9.902;2022-07-23T05:16:11;9.47;;;8.67;;
17524;SDS011;40431;52.198;9.902;2022-07-23T05:18:38;9.00;;;8.20;;
17524;SDS011;40431;52.198;9.902;2022-07-23T05:21:04;10.60;;;8.93;;
17524;SDS011;40431;52.198;9.902;2022-07-23T05:23:33;10.10;;;9.20;;
17524;SDS011;40431;52.198;9.902;2022-07-23T05:26:00;9.47;;;8.57;;
17524;SDS011;40431;52.198;9.902;2022-07-23T05:28:28;10.33;;;9.40;;
17524;SDS011;40431;52.198;9.902;2022-07-23T05:30:54;9.47;;;8.63;;
17524;SDS011;40431;52.198;9.902;2022-07-23T05:33:20;10.50;;;9.00;;
17524;SDS011;40431;52.198;9.902;2022-07-23T05:35:47;10.23;;;9.37;;
17524;SDS011;40431;52.198;9.902;2022-07-23T05:38:13;9.27;;;8.57;;
17524;SDS011;40431;52.198;9.902;2022-07-23T05:40:41;11.40;;;9.00;;
17524;SDS011;40431;52.198;9.902;2022-07-23T05:43:08;9.07;;;8.30;;
17524;SDS011;40431;52.198;9.902;2022-07-23T05:45:35;8.60;;;7.90;;
17524;SDS011;40431;52.198;9.902;2022-07-23T05:48:01;9.20;;;8.50;;
17524;SDS011;40431;52.198;9.902;2022-07-23T05:50:28;9.60;;;8.70;;
17524;SDS011;40431;52.198;9.902;2022-07-23T05:52:55;9.23;;;8.43;;
17524;SDS011;40431;52.198;9.902;2022-07-23T05:55:21;8.67;;;7.87;;
17524;SDS011;40431;52.198;9.902;2022-07-23T05:57:49;9.00;;;8.30;;
17524;SDS011;40431;52.198;9.902;2022-07-23T06:00:15;9.40;;;8.70;;
17524;SDS011;40431;52.198;9.902;2022-07-23T06:02:41;8.50;;;7.90;;
17524;SDS011;40431;52.198;9.902;2022-07-23T06:05:08;10.00;;;9.10;;
17524;SDS011;40431;52.198;9.902;2022-07-23T06:07:35;9.67;;;8.67;;
17524;SDS011;40431;52.198;9.902;2022-07-23T06:10:01;9.40;;;8.60;;
17524;SDS011;40431;52.198;9.902;2022-07-23T06:12:28;9.07;;;8.37;;
17524;SDS011;40431;52.198;9.902;2022-07-23T06:14:56;8.47;;;7.77;;
17524;SDS011;40431;52.198;9.902;2022-07-23T06:17:23;7.80;;;7.20;;
17524;SDS011;40431;52.198;9.902;2022-07-23T06:19:49;7.17;;;6.67;;
17524;SDS011;40431;52.198;9.902;2022-07-23T06:22:16;10.33;;;7.03;;
17524;SDS011;40431;52.198;9.902;2022-07-23T06:24:42;6.40;;;5.80;;
17524;SDS011;40431;52.198;9.902;2022-07-23T06:27:08;7.03;;;5.77;;
17524;SDS011;40431;52.198;9.902;2022-07-23T06:29:35;5.80;;;5.30;;
17524;SDS011;40431;52.198;9.902;2022-07-23T06:32:03;5.63;;;5.13;;
17524;SDS011;40431;52.198;9.902;2022-07-23T06:34:29;4.83;;;4.43;;
17524;SDS011;40431;52.198;9.902;2022-07-23T06:36:56;4.93;;;4.50;;
17524;SDS011;40431;52.198;9.902;2022-07-23T06:39:22;5.07;;;4.57;;
17524;SDS011;40431;52.198;9.902;2022-07-23T06:41:48;5.47;;;4.97;;
17524;SDS011;40431;52.198;9.902;2022-07-23T06:44:15;5.33;;;4.93;;
17524;SDS011;40431;52.198;9.902;2022-07-23T06:46:41;4.57;;;3.97;;
17524;SDS011;40431;52.198;9.902;2022-07-23T06:49:09;5.07;;;4.53;;
17524;SDS011;40431;52.198;9.902;2022-07-23T06:51:35;5.97;;;4.53;;
17524;SDS011;40431;52.198;9.902;2022-07-23T06:54:02;4.83;;;4.33;;
17524;SDS011;40431;52.198;9.902;2022-07-23T06:56:29;4.97;;;4.57;;
17524;SDS011;40431;52.198;9.902;2022-07-23T06:58:55;5.03;;;4.57;;
17524;SDS011;40431;52.198;9.902;2022-07-23T07:01:21;5.43;;;4.77;;
17524;SDS011;40431;52.198;9.902;2022-07-23T07:03:48;4.60;;;4.03;;
17524;SDS011;40431;52.198;9.902;2022-07-23T07:06:15;4.87;;;4.47;;
17524;SDS011;40431;52.198;9.902;2022-07-23T07:08:42;5.40;;;4.10;;
17524;SDS011;40431;52.198;9.902;2022-07-23T07:11:09;3.97;;;3.67;;
17524;SDS011;40431;52.198;9.902;2022-07-23T07:13:35;7.47;;;4.07;;
17524;SDS011;40431;52.198;9.902;2022-07-23T07:16:02;4.63;;;4.00;;
17524;SDS011;40431;52.198;9.902;2022-07-23T07:18:28;4.23;;;3.83;;
17524;SDS011;40431;52.198;9.902;2022-07-23T07:20:54;7.63;;;4.23;;
17524;SDS011;40431;52.198;9.902;2022-07-23T07:23:23;5.07;;;4.47;;
17524;SDS011;40431;52.198;9.902;2022-07-23T07:25:50;6.70;;;4.37;;
17524;SDS011;40431;52.198;9.902;2022-07-23T07:28:16;7.93;;;5.00;;
17524;SDS011;40431;52.198;9.902;2022-07-23T07:30:42;37.33;;;8.63;;
17524;SDS011;40431;52.198;9.902;2022-07-23T07:33:09;4.33;;;3.93;;
17524;SDS011;40431;52.198;9.902;2022-07-23T07:35:35;4.63;;;4.23;;
17524;SDS011;40431;52.198;9.902;2022-07-23T07:38:01;4.67;;;4.27;;
17524;SDS011;40431;52.198;9.902;2022-07-23T07:40:29;3.70;;;3.30;;
17524;SDS011;40431;52.198;9.902;2022-07-23T07:42:55;4.37;;;3.93;;
17524;SDS011;40431;52.198;9.902;2022-07-23T07:45:22;5.03;;;3.37;;
17524;SDS011;40431;52.198;9.902;2022-07-23T07:47:50;4.50;;;3.40;;
17524;SDS011;40431;52.198;9.902;2022-07-23T07:50:17;3.60;;;3.17;;
17524;SDS011;40431;52.198;9.902;2022-07-23T07:52:43;3.57;;;3.27;;
17524;SDS011;40431;52.198;9.902;2022-07-23T07:55:10;3.10;;;2.50;;
17524;SDS011;40431;52.198;9.902;2022-07-23T07:57:38;3.93;;;3.30;;
17524;SDS011;40431;52.198;9.902;2022-07-23T08:00:06;3.33;;;3.03;;
17524;SDS011;40431;52.198;9.902;2022-07-23T08:02:39;4.63;;;2.73;;
17524;SDS011;40431;52.198;9.902;2022-07-23T08:05:06;2.90;;;2.40;;
17524;SDS011;40431;52.198;9.902;2022-07-23T08:07:33;2.80;;;2.60;;
17524;SDS011;40431;52.198;9.902;2022-07-23T08:10:00;7.20;;;3.93;;
17524;SDS011;40431;52.198;9.902;2022-07-23T08:12:26;3.10;;;2.83;;
17524;SDS011;40431;52.198;9.902;2022-07-23T08:14:54;2.90;;;2.50;;
17524;SDS011;40431;52.198;9.902;2022-07-23T08:17:20;4.53;;;3.17;;
17524;SDS011;40431;52.198;9.902;2022-07-23T08:19:46;4.57;;;3.50;;
17524;SDS011;40431;52.198;9.902;2022-07-23T08:22:13;5.63;;;3.23;;
17524;SDS011;40431;52.198;9.902;2022-07-23T08:24:39;3.17;;;2.87;;
17524;SDS011;40431;52.198;9.902;2022-07-23T08:27:05;3.20;;;2.90;;
17524;SDS011;40431;52.198;9.902;2022-07-23T08:29:32;3.97;;;3.67;;
17524;SDS011;40431;52.198;9.902;2022-07-23T08:31:59;5.47;;;4.30;;
17524;SDS011;40431;52.198;9.902;2022-07-23T08:34:26;3.07;;;2.77;;
17524;SDS011;40431;52.198;9.902;2022-07-23T08:36:52;3.47;;;3.17;;
17524;SDS011;40431;52.198;9.902;2022-07-23T08:39:18;6.13;;;3.37;;
17524;SDS011;40431;52.198;9.902;2022-07-23T08:41:45;3.90;;;3.50;;
17524;SDS011;40431;52.198;9.902;2022-07-23T08:44:13;2.77;;;2.47;;
17524;SDS011;40431;52.198;9.902;2022-07-23T08:46:44;5.73;;;2.90;;
17524;SDS011;40431;52.198;9.902;2022-07-23T08:49:13;2.87;;;2.33;;
17524;SDS011;40431;52.198;9.902;2022-07-23T08:51:40;3.03;;;2.60;;
17524;SDS011;40431;52.198;9.902;2022-07-23T08:54:07;2.40;;;2.20;;
17524;SDS011;40431;52.198;9.902;2022-07-23T08:56:33;2.97;;;2.37;;
17524;SDS011;40431;52.198;9.902;2022-07-23T08:59:01;2.63;;;2.17;;
17524;SDS011;40431;52.198;9.902;2022-07-23T09:01:27;2.40;;;1.93;;
17524;SDS011;40431;52.198;9.902;2022-07-23T09:03:53;3.17;;;2.50;;
17524;SDS011;40431;52.198;9.902;2022-07-23T09:06:21;2.40;;;2.20;;
17524;SDS011;40431;52.198;9.902;2022-07-23T09:08:47;2.60;;;1.97;;
17524;SDS011;40431;52.198;9.902;2022-07-23T09:11:15;2.60;;;1.93;;
17524;SDS011;40431;52.198;9.902;2022-07-23T09:13:45;2.50;;;2.13;;
17524;SDS011;40431;52.198;9.902;2022-07-23T09:16:13;2.53;;;2.33;;
17524;SDS011;40431;52.198;9.902;2022-07-23T09:18:42;3.70;;;1.87;;
17524;SDS011;40431;52.198;9.902;2022-07-23T09:21:15;2.67;;;2.47;;
17524;SDS011;40431;52.198;9.902;2022-07-23T09:23:45;2.83;;;2.40;;
17524;SDS011;40431;52.198;9.902;2022-07-23T09:26:19;5.53;;;2.00;;
17524;SDS011;40431;52.198;9.902;2022-07-23T09:29:08;3.03;;;2.03;;
17524;SDS011;40431;52.198;9.902;2022-07-23T09:31:43;2.97;;;2.20;;
17524;SDS011;40431;52.198;9.902;2022-07-23T09:34:16;2.07;;;1.87;;
17524;SDS011;40431;52.198;9.902;2022-07-23T09:36:44;2.40;;;1.90;;
17524;SDS011;40431;52.198;9.902;2022-07-23T09:39:13;5.77;;;1.97;;
17524;SDS011;40431;52.198;9.902;2022-07-23T09:41:43;3.10;;;2.00;;
17524;SDS011;40431;52.198;9.902;2022-07-23T09:44:12;3.33;;;1.80;;
17524;SDS011;40431;52.198;9.902;2022-07-23T09:46:42;3.30;;;2.07;;
17524;SDS011;40431;52.198;9.902;2022-07-23T09:49:10;2.30;;;1.60;;
17524;SDS011;40431;52.198;9.902;2022-07-23T09:51:43;2.67;;;1.87;;
17524;SDS011;40431;52.198;9.902;2022-07-23T09:54:20;4.83;;;2.20;;
17524;SDS011;40431;52.198;9.902;2022-07-23T09:56:59;3.33;;;2.10;;
17524;SDS011;40431;52.198;9.902;2022-07-23T09:59:28;2.80;;;2.13;;
17524;SDS011;40431;52.198;9.902;2022-07-23T10:01:56;5.13;;;2.30;;
17524;SDS011;40431;52.198;9.902;2022-07-23T10:04:25;3.33;;;2.10;;
17524;SDS011;40431;52.198;9.902;2022-07-23T10:06:53;3.07;;;2.13;;
17524;SDS011;40431;52.198;9.902;2022-07-23T10:09:26;2.53;;;2.20;;
17524;SDS011;40431;52.198;9.902;2022-07-23T10:11:54;5.67;;;2.07;;
17524;SDS011;40431;52.198;9.902;2022-07-23T10:14:26;2.67;;;1.73;;
17524;SDS011;40431;52.198;9.902;2022-07-23T10:16:52;2.73;;;1.60;;
17524;SDS011;40431;52.198;9.902;2022-07-23T10:19:19;3.00;;;2.13;;
17524;SDS011;40431;52.198;9.902;2022-07-23T10:21:46;3.33;;;1.70;;
17524;SDS011;40431;52.198;9.902;2022-07-23T10:24:18;5.97;;;2.00;;
17524;SDS011;40431;52.198;9.902;2022-07-23T10:27:12;2.13;;;2.00;;
17524;SDS011;40431;52.198;9.902;2022-07-23T10:29:58;2.30;;;1.93;;
17524;SDS011;40431;52.198;9.902;2022-07-23T10:32:31;1.63;;;1.50;;
17524;SDS011;40431;52.198;9.902;2022-07-23T10:35:11;2.93;;;1.67;;
17524;SDS011;40431;52.198;9.902;2022-07-23T10:37:55;1.77;;;1.60;;
17524;SDS011;40431;52.198;9.902;2022-07-23T10:40:28;2.93;;;1.83;;
17524;SDS011;40431;52.198;9.902;2022-07-23T10:42:59;2.47;;;1.93;;
17524;SDS011;40431;52.198;9.902;2022-07-23T10:45:28;2.03;;;1.60;;
17524;SDS011;40431;52.198;9.902;2022-07-23T10:48:10;2.03;;;1.83;;
17524;SDS011;40431;52.198;9.902;2022-07-23T10:50:39;2.77;;;1.50;;
17524;SDS011;40431;52.198;9.902;2022-07-23T10:55:51;1.83;;;1.73;;
17524;SDS011;40431;52.198;9.902;2022-07-23T10:58:23;3.90;;;1.77;;
17524;SDS011;40431;52.198;9.902;2022-07-23T11:03:57;2.13;;;1.93;;
17524;SDS011;40431;52.198;9.902;2022-07-23T11:06:24;4.17;;;2.07;;
17524;SDS011;40431;52.198;9.902;2022-07-23T11:09:38;6.07;;;1.70;;
17524;SDS011;40431;52.198;9.902;2022-07-23T11:15:03;2.23;;;1.43;;
17524;SDS011;40431;52.198;9.902;2022-07-23T11:17:32;1.70;;;1.60;;
17524;SDS011;40431;52.198;9.902;2022-07-23T11:22:49;2.33;;;1.50;;
17524;SDS011;40431;52.198;9.902;2022-07-23T11:25:32;1.60;;;1.50;;
17524;SDS011;40431;52.198;9.902;2022-07-23T11:28:11;1.40;;;1.20;;
17524;SDS011;40431;52.198;9.902;2022-07-23T11:30:40;5.80;;;1.80;;
17524;SDS011;40431;52.198;9.902;2022-07-23T11:33:15;2.67;;;1.47;;
17524;SDS011;40431;52.198;9.902;2022-07-23T11:35:44;2.03;;;1.60;;
17524;SDS011;40431;52.198;9.902;2022-07-23T11:38:13;1.87;;;1.77;;
17524;SDS011;40431;52.198;9.902;2022-07-23T11:40:43;3.90;;;1.40;;
17524;SDS011;40431;52.198;9.902;2022-07-23T11:43:11;2.27;;;1.20;;
17524;SDS011;40431;52.198;9.902;2022-07-23T11:45:39;2.97;;;1.70;;
17524;SDS011;40431;52.198;9.902;2022-07-23T11:48:08;1.80;;;1.03;;
17524;SDS011;40431;52.198;9.902;2022-07-23T11:50:41;1.80;;;1.43;;
17524;SDS011;40431;52.198;9.902;2022-07-23T11:53:07;2.97;;;1.50;;
17524;SDS011;40431;52.198;9.902;2022-07-23T11:55:34;5.83;;;1.63;;
17524;SDS011;40431;52.198;9.902;2022-07-23T11:58:02;2.60;;;1.20;;
17524;SDS011;40431;52.198;9.902;2022-07-23T12:00:30;3.83;;;1.50;;
17524;SDS011;40431;52.198;9.902;2022-07-23T12:02:58;1.77;;;1.43;;
17524;SDS011;40431;52.198;9.902;2022-07-23T12:05:27;1.83;;;1.30;;
17524;SDS011;40431;52.198;9.902;2022-07-23T12:07:56;2.07;;;1.20;;
17524;SDS011;40431;52.198;9.902;2022-07-23T12:10:24;3.17;;;1.17;;
17524;SDS011;40431;52.198;9.902;2022-07-23T12:12:52;3.13;;;1.50;;
17524;SDS011;40431;52.198;9.902;2022-07-23T12:15:22;1.13;;;1.03;;
17524;SDS011;40431;52.198;9.902;2022-07-23T12:17:51;2.57;;;1.30;;
17524;SDS011;40431;52.198;9.902;2022-07-23T12:20:20;1.93;;;1.20;;
17524;SDS011;40431;52.198;9.902;2022-07-23T12:22:49;1.13;;;1.00;;
17524;SDS011;40431;52.198;9.902;2022-07-23T12:25:18;5.13;;;1.00;;
17524;SDS011;40431;52.198;9.902;2022-07-23T12:27:56;1.40;;;1.07;;
17524;SDS011;40431;52.198;9.902;2022-07-23T12:30:26;2.37;;;1.07;;
17524;SDS011;40431;52.198;9.902;2022-07-23T12:32:55;1.10;;;1.00;;
17524;SDS011;40431;52.198;9.902;2022-07-23T12:35:29;4.97;;;1.30;;
17524;SDS011;40431;52.198;9.902;2022-07-23T12:37:59;2.77;;;1.00;;
17524;SDS011;40431;52.198;9.902;2022-07-23T12:40:28;1.40;;;1.00;;
17524;SDS011;40431;52.198;9.902;2022-07-23T12:42:56;1.73;;;1.03;;
17524;SDS011;40431;52.198;9.902;2022-07-23T12:45:26;2.13;;;1.07;;
17524;SDS011;40431;52.198;9.902;2022-07-23T12:47:55;10.17;;;2.50;;
17524;SDS011;40431;52.198;9.902;2022-07-23T12:50:31;1.57;;;0.90;;
17524;SDS011;40431;52.198;9.902;2022-07-23T12:53:06;3.43;;;1.23;;
17524;SDS011;40431;52.198;9.902;2022-07-23T12:55:33;1.73;;;0.97;;
17524;SDS011;40431;52.198;9.902;2022-07-23T12:58:04;1.40;;;0.90;;
17524;SDS011;40431;52.198;9.902;2022-07-23T13:03:37;1.00;;;0.90;;
17524;SDS011;40431;52.198;9.902;2022-07-23T13:06:06;2.90;;;1.10;;
17524;SDS011;40431;52.198;9.902;2022-07-23T13:08:35;1.77;;;1.03;;
17524;SDS011;40431;52.198;9.902;2022-07-23T13:11:02;0.80;;;0.80;;
17524;SDS011;40431;52.198;9.902;2022-07-23T13:13:31;1.13;;;0.90;;
17524;SDS011;40431;52.198;9.902;2022-07-23T13:15:59;1.53;;;1.07;;
17524;SDS011;40431;52.198;9.902;2022-07-23T13:18:26;1.27;;;0.87;;
17524;SDS011;40431;52.198;9.902;2022-07-23T13:20:54;1.43;;;1.00;;
17524;SDS011;40431;52.198;9.902;2022-07-23T13:23:21;1.93;;;0.83;;
17524;SDS011;40431;52.198;9.902;2022-07-23T13:25:47;1.63;;;0.90;;
17524;SDS011;40431;52.198;9.902;2022-07-23T13:28:14;1.27;;;1.17;;
17524;SDS011;40431;52.198;9.902;2022-07-23T13:30:42;3.23;;;0.80;;
17524;SDS011;40431;52.198;9.902;2022-07-23T13:33:09;1.37;;;1.10;;
17524;SDS011;40431;52.198;9.902;2022-07-23T13:35:35;4.67;;;1.47;;
17524;SDS011;40431;52.198;9.902;2022-07-23T13:38:04;3.47;;;1.13;;
17524;SDS011;40431;52.198;9.902;2022-07-23T13:40:33;0.87;;;0.80;;
17524;SDS011;40431;52.198;9.902;2022-07-23T13:43:00;1.27;;;0.93;;
17524;SDS011;40431;52.198;9.902;2022-07-23T13:45:26;1.20;;;0.80;;
17524;SDS011;40431;52.198;9.902;2022-07-23T13:47:53;0.93;;;0.73;;
17524;SDS011;40431;52.198;9.902;2022-07-23T13:50:19;3.00;;;0.87;;
17524;SDS011;40431;52.198;9.902;2022-07-23T13:52:46;1.30;;;0.90;;
17524;SDS011;40431;52.198;9.902;2022-07-23T13:55:13;1.33;;;0.87;;
17524;SDS011;40431;52.198;9.902;2022-07-23T13:57:40;1.40;;;0.80;;
17524;SDS011;40431;52.198;9.902;2022-07-23T14:00:07;1.90;;;0.70;;
17524;SDS011;40431;52.198;9.902;2022-07-23T14:02:35;3.17;;;1.00;;
17524;SDS011;40431;52.198;9.902;2022-07-23T14:05:03;1.70;;;0.93;;
17524;SDS011;40431;52.198;9.902;2022-07-23T14:07:30;1.20;;;0.80;;
17524;SDS011;40431;52.198;9.902;2022-07-23T14:09:56;0.80;;;0.80;;
17524;SDS011;40431;52.198;9.902;2022-07-23T14:12:24;1.00;;;0.90;;
17524;SDS011;40431;52.198;9.902;2022-07-23T14:14:51;0.80;;;0.67;;
17524;SDS011;40431;52.198;9.902;2022-07-23T14:17:18;1.47;;;0.97;;
17524;SDS011;40431;52.198;9.902;2022-07-23T14:19:44;1.13;;;0.80;;
17524;SDS011;40431;52.198;9.902;2022-07-23T14:22:11;3.10;;;1.10;;
17524;SDS011;40431;52.198;9.902;2022-07-23T14:24:37;0.77;;;0.77;;
17524;SDS011;40431;52.198;9.902;2022-07-23T14:27:04;0.80;;;0.80;;
17524;SDS011;40431;52.198;9.902;2022-07-23T14:29:32;1.30;;;0.80;;
17524;SDS011;40431;52.198;9.902;2022-07-23T14:32:00;1.77;;;0.80;;
17524;SDS011;40431;52.198;9.902;2022-07-23T14:34:26;1.37;;;0.80;;
17524;SDS011;40431;52.198;9.902;2022-07-23T14:36:53;1.43;;;0.80;;
17524;SDS011;40431;52.198;9.902;2022-07-23T14:39:19;2.67;;;0.87;;
17524;SDS011;40431;52.198;9.902;2022-07-23T14:41:46;0.87;;;0.73;;
17524;SDS011;40431;52.198;9.902;2022-07-23T14:44:12;2.17;;;0.70;;
17524;SDS011;40431;52.198;9.902;2022-07-23T14:46:40;0.73;;;0.70;;
17524;SDS011;40431;52.198;9.902;2022-07-23T14:49:06;2.87;;;0.93;;
17524;SDS011;40431;52.198;9.902;2022-07-23T14:51:33;3.90;;;1.27;;
17524;SDS011;40431;52.198;9.902;2022-07-23T14:54:00;0.70;;;0.70;;
17524;SDS011;40431;52.198;9.902;2022-07-23T14:56:26;1.07;;;0.97;;
17524;SDS011;40431;52.198;9.902;2022-07-23T14:58:52;2.60;;;0.87;;
17524;SDS011;40431;52.198;9.902;2022-07-23T15:01:20;1.60;;;0.70;;
17524;SDS011;40431;52.198;9.902;2022-07-23T15:03:48;1.50;;;0.83;;